sensor_id;sensor_type;location;lat;lon;timestamp;temperature;humidity
12408;DHT22;6268;48.188;17.134;2023-04-07T00:00:35;7.60;68.40
12408;DHT22;6268;48.188;17.134;2023-04-07T00:03:04;7.50;68.50
12408;DHT22;6268;48.188;17.134;2023-04-07T00:05:35;7.50;68.70
12408;DHT22;6268;48.188;17.134;2023-04-07T00:08:03;7.40;69.30
12408;DHT22;6268;48.188;17.134;2023-04-07T00:10:34;7.40;69.90
12408;DHT22;6268;48.188;17.134;2023-04-07T00:13:03;7.30;69.30
12408;DHT22;6268;48.188;17.134;2023-04-07T00:15:31;7.40;68.60
12408;DHT22;6268;48.188;17.134;2023-04-07T00:18:00;7.50;68.70
12408;DHT22;6268;48.188;17.134;2023-04-07T00:20:29;7.30;68.80
12408;DHT22;6268;48.188;17.134;2023-04-07T00:22:58;7.30;68.50
12408;DHT22;6268;48.188;17.134;2023-04-07T00:25:27;7.30;69.00
12408;DHT22;6268;48.188;17.134;2023-04-07T00:27:57;7.30;69.00
12408;DHT22;6268;48.188;17.134;2023-04-07T00:30:26;7.30;69.40
12408;DHT22;6268;48.188;17.134;2023-04-07T00:32:54;7.40;69.10
12408;DHT22;6268;48.188;17.134;2023-04-07T00:35:23;7.30;69.40
12408;DHT22;6268;48.188;17.134;2023-04-07T00:37:52;7.30;69.80
12408;DHT22;6268;48.188;17.134;2023-04-07T00:40:21;7.30;69.90
12408;DHT22;6268;48.188;17.134;2023-04-07T00:42:49;7.30;69.60
12408;DHT22;6268;48.188;17.134;2023-04-07T00:45:21;7.20;69.60
12408;DHT22;6268;48.188;17.134;2023-04-07T00:47:50;7.20;69.80
12408;DHT22;6268;48.188;17.134;2023-04-07T00:50:19;7.20;71.00
12408;DHT22;6268;48.188;17.134;2023-04-07T00:52:48;7.20;70.20
12408;DHT22;6268;48.188;17.134;2023-04-07T00:55:17;7.20;70.30
12408;DHT22;6268;48.188;17.134;2023-04-07T00:57:46;7.20;70.30
12408;DHT22;6268;48.188;17.134;2023-04-07T01:00:15;7.20;70.30
12408;DHT22;6268;48.188;17.134;2023-04-07T01:02:52;7.20;70.60
12408;DHT22;6268;48.188;17.134;2023-04-07T01:05:34;7.30;70.40
12408;DHT22;6268;48.188;17.134;2023-04-07T01:08:12;7.30;70.30
12408;DHT22;6268;48.188;17.134;2023-04-07T01:10:49;7.10;70.70
12408;DHT22;6268;48.188;17.134;2023-04-07T01:13:22;7.20;71.00
12408;DHT22;6268;48.188;17.134;2023-04-07T01:15:57;7.20;71.10
12408;DHT22;6268;48.188;17.134;2023-04-07T01:18:34;7.20;71.30
12408;DHT22;6268;48.188;17.134;2023-04-07T01:21:09;7.30;71.10
12408;DHT22;6268;48.188;17.134;2023-04-07T01:23:58;7.20;71.50
12408;DHT22;6268;48.188;17.134;2023-04-07T01:26:33;7.20;71.70
12408;DHT22;6268;48.188;17.134;2023-04-07T01:29:20;7.20;72.00
12408;DHT22;6268;48.188;17.134;2023-04-07T01:31:59;7.20;72.10
12408;DHT22;6268;48.188;17.134;2023-04-07T01:34:31;7.30;72.00
12408;DHT22;6268;48.188;17.134;2023-04-07T01:37:01;7.30;72.30
12408;DHT22;6268;48.188;17.134;2023-04-07T01:39:32;7.30;72.30
12408;DHT22;6268;48.188;17.134;2023-04-07T01:42:02;7.10;73.50
12408;DHT22;6268;48.188;17.134;2023-04-07T01:44:35;7.10;73.90
12408;DHT22;6268;48.188;17.134;2023-04-07T01:47:05;7.00;74.30
12408;DHT22;6268;48.188;17.134;2023-04-07T01:49:35;6.90;74.60
12408;DHT22;6268;48.188;17.134;2023-04-07T01:52:07;6.90;74.80
12408;DHT22;6268;48.188;17.134;2023-04-07T01:54:37;6.90;74.70
12408;DHT22;6268;48.188;17.134;2023-04-07T01:57:07;6.90;75.10
12408;DHT22;6268;48.188;17.134;2023-04-07T01:59:37;6.90;75.50
12408;DHT22;6268;48.188;17.134;2023-04-07T02:02:06;6.80;76.00
12408;DHT22;6268;48.188;17.134;2023-04-07T02:04:39;6.80;76.80
12408;DHT22;6268;48.188;17.134;2023-04-07T02:07:19;6.70;77.60
12408;DHT22;6268;48.188;17.134;2023-04-07T02:09:57;6.60;78.90
12408;DHT22;6268;48.188;17.134;2023-04-07T02:12:28;6.50;79.40
12408;DHT22;6268;48.188;17.134;2023-04-07T02:15:00;6.60;79.80
12408;DHT22;6268;48.188;17.134;2023-04-07T02:17:32;6.60;80.20
12408;DHT22;6268;48.188;17.134;2023-04-07T02:20:06;6.70;80.20
12408;DHT22;6268;48.188;17.134;2023-04-07T02:22:37;6.60;81.30
12408;DHT22;6268;48.188;17.134;2023-04-07T02:25:20;6.60;82.40
12408;DHT22;6268;48.188;17.134;2023-04-07T02:27:50;6.50;83.90
12408;DHT22;6268;48.188;17.134;2023-04-07T02:30:21;6.40;85.30
12408;DHT22;6268;48.188;17.134;2023-04-07T02:32:50;6.40;86.30
12408;DHT22;6268;48.188;17.134;2023-04-07T02:35:19;6.40;86.80
12408;DHT22;6268;48.188;17.134;2023-04-07T02:37:49;6.50;87.10
12408;DHT22;6268;48.188;17.134;2023-04-07T02:40:18;6.50;87.30
12408;DHT22;6268;48.188;17.134;2023-04-07T02:42:47;6.60;87.30
12408;DHT22;6268;48.188;17.134;2023-04-07T02:45:15;6.60;87.50
12408;DHT22;6268;48.188;17.134;2023-04-07T02:47:46;6.60;88.00
12408;DHT22;6268;48.188;17.134;2023-04-07T02:50:15;6.60;88.10
12408;DHT22;6268;48.188;17.134;2023-04-07T02:52:43;6.50;89.00
12408;DHT22;6268;48.188;17.134;2023-04-07T02:55:12;6.40;90.20
12408;DHT22;6268;48.188;17.134;2023-04-07T02:57:41;6.30;90.90
12408;DHT22;6268;48.188;17.134;2023-04-07T03:00:11;6.40;91.10
12408;DHT22;6268;48.188;17.134;2023-04-07T03:02:41;6.40;91.40
12408;DHT22;6268;48.188;17.134;2023-04-07T03:05:12;6.30;91.70
12408;DHT22;6268;48.188;17.134;2023-04-07T03:07:40;6.30;92.00
12408;DHT22;6268;48.188;17.134;2023-04-07T03:10:10;6.30;92.70
12408;DHT22;6268;48.188;17.134;2023-04-07T03:12:38;6.30;92.70
12408;DHT22;6268;48.188;17.134;2023-04-07T03:15:08;6.30;93.20
12408;DHT22;6268;48.188;17.134;2023-04-07T03:17:37;6.30;94.00
12408;DHT22;6268;48.188;17.134;2023-04-07T03:20:07;6.20;94.70
12408;DHT22;6268;48.188;17.134;2023-04-07T03:22:37;6.20;95.70
12408;DHT22;6268;48.188;17.134;2023-04-07T03:25:07;6.20;95.90
12408;DHT22;6268;48.188;17.134;2023-04-07T03:27:37;6.20;96.60
12408;DHT22;6268;48.188;17.134;2023-04-07T03:30:07;6.20;97.40
12408;DHT22;6268;48.188;17.134;2023-04-07T03:32:36;6.30;97.60
12408;DHT22;6268;48.188;17.134;2023-04-07T03:35:06;6.30;97.70
12408;DHT22;6268;48.188;17.134;2023-04-07T03:37:37;6.30;97.70
12408;DHT22;6268;48.188;17.134;2023-04-07T03:40:07;6.10;98.80
12408;DHT22;6268;48.188;17.134;2023-04-07T03:42:36;6.00;99.90
12408;DHT22;6268;48.188;17.134;2023-04-07T03:45:06;6.00;99.90
12408;DHT22;6268;48.188;17.134;2023-04-07T03:47:35;6.00;99.90
12408;DHT22;6268;48.188;17.134;2023-04-07T03:50:05;6.00;99.90
12408;DHT22;6268;48.188;17.134;2023-04-07T03:52:34;6.10;99.90
12408;DHT22;6268;48.188;17.134;2023-04-07T03:55:06;6.10;99.90
12408;DHT22;6268;48.188;17.134;2023-04-07T03:57:35;6.00;99.90
12408;DHT22;6268;48.188;17.134;2023-04-07T04:00:05;6.00;99.90
12408;DHT22;6268;48.188;17.134;2023-04-07T04:02:35;5.90;99.90
12408;DHT22;6268;48.188;17.134;2023-04-07T04:05:04;6.00;99.90
12408;DHT22;6268;48.188;17.134;2023-04-07T04:07:33;6.10;99.90
12408;DHT22;6268;48.188;17.134;2023-04-07T04:10:04;6.10;99.90
12408;DHT22;6268;48.188;17.134;2023-04-07T04:12:33;6.10;99.90
12408;DHT22;6268;48.188;17.134;2023-04-07T04:15:02;6.10;99.90
12408;DHT22;6268;48.188;17.134;2023-04-07T04:17:32;6.10;99.90
12408;DHT22;6268;48.188;17.134;2023-04-07T04:20:00;6.20;99.90
12408;DHT22;6268;48.188;17.134;2023-04-07T04:22:29;6.10;99.90
12408;DHT22;6268;48.188;17.134;2023-04-07T04:24:58;6.20;99.90
12408;DHT22;6268;48.188;17.134;2023-04-07T04:27:28;6.20;99.90
12408;DHT22;6268;48.188;17.134;2023-04-07T04:29:57;6.20;99.90
12408;DHT22;6268;48.188;17.134;2023-04-07T04:32:26;6.20;99.90
12408;DHT22;6268;48.188;17.134;2023-04-07T04:34:55;6.20;99.90
12408;DHT22;6268;48.188;17.134;2023-04-07T04:37:24;6.20;99.90
12408;DHT22;6268;48.188;17.134;2023-04-07T04:39:53;6.20;99.90
12408;DHT22;6268;48.188;17.134;2023-04-07T04:42:22;6.20;99.90
12408;DHT22;6268;48.188;17.134;2023-04-07T04:44:53;6.20;99.90
12408;DHT22;6268;48.188;17.134;2023-04-07T04:47:22;6.20;99.90
12408;DHT22;6268;48.188;17.134;2023-04-07T04:49:51;6.20;99.90
12408;DHT22;6268;48.188;17.134;2023-04-07T04:52:20;6.20;99.90
12408;DHT22;6268;48.188;17.134;2023-04-07T04:54:49;6.20;99.90
12408;DHT22;6268;48.188;17.134;2023-04-07T04:57:18;6.10;99.90
12408;DHT22;6268;48.188;17.134;2023-04-07T04:59:46;6.00;99.90
12408;DHT22;6268;48.188;17.134;2023-04-07T05:02:17;6.10;99.90
12408;DHT22;6268;48.188;17.134;2023-04-07T05:04:46;6.10;99.90
12408;DHT22;6268;48.188;17.134;2023-04-07T05:07:15;6.10;99.90
12408;DHT22;6268;48.188;17.134;2023-04-07T05:09:44;6.10;99.90
12408;DHT22;6268;48.188;17.134;2023-04-07T05:12:14;6.10;99.90
12408;DHT22;6268;48.188;17.134;2023-04-07T05:14:43;6.10;99.90
12408;DHT22;6268;48.188;17.134;2023-04-07T05:17:12;6.10;99.90
12408;DHT22;6268;48.188;17.134;2023-04-07T05:19:42;6.20;99.90
12408;DHT22;6268;48.188;17.134;2023-04-07T05:22:11;6.20;99.90
12408;DHT22;6268;48.188;17.134;2023-04-07T05:24:39;6.10;99.90
12408;DHT22;6268;48.188;17.134;2023-04-07T05:27:08;6.10;99.90
12408;DHT22;6268;48.188;17.134;2023-04-07T05:29:37;6.10;99.90
12408;DHT22;6268;48.188;17.134;2023-04-07T05:32:06;6.00;99.90
12408;DHT22;6268;48.188;17.134;2023-04-07T05:34:36;6.00;99.90
12408;DHT22;6268;48.188;17.134;2023-04-07T05:37:06;6.00;99.90
12408;DHT22;6268;48.188;17.134;2023-04-07T05:39:35;6.00;99.90
12408;DHT22;6268;48.188;17.134;2023-04-07T05:42:04;6.20;99.90
12408;DHT22;6268;48.188;17.134;2023-04-07T05:44:33;6.20;99.90
12408;DHT22;6268;48.188;17.134;2023-04-07T05:47:02;6.30;99.90
12408;DHT22;6268;48.188;17.134;2023-04-07T05:49:35;6.40;99.90
12408;DHT22;6268;48.188;17.134;2023-04-07T05:52:08;6.20;99.90
12408;DHT22;6268;48.188;17.134;2023-04-07T05:54:37;6.10;99.90
12408;DHT22;6268;48.188;17.134;2023-04-07T05:57:07;6.20;99.90
12408;DHT22;6268;48.188;17.134;2023-04-07T05:59:36;6.20;99.90
12408;DHT22;6268;48.188;17.134;2023-04-07T06:02:05;6.20;99.90
12408;DHT22;6268;48.188;17.134;2023-04-07T06:04:34;6.20;99.90
12408;DHT22;6268;48.188;17.134;2023-04-07T06:07:06;6.10;99.90
12408;DHT22;6268;48.188;17.134;2023-04-07T06:09:36;6.20;99.90
12408;DHT22;6268;48.188;17.134;2023-04-07T06:12:05;6.20;99.90
12408;DHT22;6268;48.188;17.134;2023-04-07T06:14:35;6.30;99.90
12408;DHT22;6268;48.188;17.134;2023-04-07T06:17:04;6.20;99.90
12408;DHT22;6268;48.188;17.134;2023-04-07T06:19:33;6.20;99.90
12408;DHT22;6268;48.188;17.134;2023-04-07T06:22:02;6.30;99.90
12408;DHT22;6268;48.188;17.134;2023-04-07T06:24:32;6.40;99.90
12408;DHT22;6268;48.188;17.134;2023-04-07T06:27:00;6.50;99.90
12408;DHT22;6268;48.188;17.134;2023-04-07T06:29:31;6.40;99.90
12408;DHT22;6268;48.188;17.134;2023-04-07T06:32:01;6.50;99.90
12408;DHT22;6268;48.188;17.134;2023-04-07T06:34:29;6.50;99.90
12408;DHT22;6268;48.188;17.134;2023-04-07T06:36:58;6.50;99.90
12408;DHT22;6268;48.188;17.134;2023-04-07T06:39:28;6.50;99.90
12408;DHT22;6268;48.188;17.134;2023-04-07T06:41:59;6.50;99.90
12408;DHT22;6268;48.188;17.134;2023-04-07T06:44:28;6.60;99.90
12408;DHT22;6268;48.188;17.134;2023-04-07T06:46:57;6.70;99.90
12408;DHT22;6268;48.188;17.134;2023-04-07T06:49:26;6.50;99.90
12408;DHT22;6268;48.188;17.134;2023-04-07T06:51:55;6.40;99.90
12408;DHT22;6268;48.188;17.134;2023-04-07T06:54:24;6.50;99.90
12408;DHT22;6268;48.188;17.134;2023-04-07T06:56:53;6.50;99.90
12408;DHT22;6268;48.188;17.134;2023-04-07T06:59:24;6.40;99.90
12408;DHT22;6268;48.188;17.134;2023-04-07T07:01:53;6.50;99.90
12408;DHT22;6268;48.188;17.134;2023-04-07T07:04:22;6.30;99.90
12408;DHT22;6268;48.188;17.134;2023-04-07T07:06:51;6.20;99.90
12408;DHT22;6268;48.188;17.134;2023-04-07T07:09:22;6.20;99.90
12408;DHT22;6268;48.188;17.134;2023-04-07T07:11:50;6.30;99.90
12408;DHT22;6268;48.188;17.134;2023-04-07T07:14:19;6.30;99.90
12408;DHT22;6268;48.188;17.134;2023-04-07T07:16:50;6.20;99.90
12408;DHT22;6268;48.188;17.134;2023-04-07T07:19:18;6.10;99.90
12408;DHT22;6268;48.188;17.134;2023-04-07T07:21:47;6.10;99.90
12408;DHT22;6268;48.188;17.134;2023-04-07T07:24:16;6.10;99.90
12408;DHT22;6268;48.188;17.134;2023-04-07T07:26:45;6.20;99.90
12408;DHT22;6268;48.188;17.134;2023-04-07T07:29:14;6.10;99.90
12408;DHT22;6268;48.188;17.134;2023-04-07T07:31:43;6.10;99.90
12408;DHT22;6268;48.188;17.134;2023-04-07T07:34:13;5.90;99.90
12408;DHT22;6268;48.188;17.134;2023-04-07T07:36:42;5.70;99.90
12408;DHT22;6268;48.188;17.134;2023-04-07T07:39:11;5.60;99.90
12408;DHT22;6268;48.188;17.134;2023-04-07T07:41:40;5.80;99.90
12408;DHT22;6268;48.188;17.134;2023-04-07T07:44:09;5.90;99.90
12408;DHT22;6268;48.188;17.134;2023-04-07T07:46:38;6.10;99.90
12408;DHT22;6268;48.188;17.134;2023-04-07T07:49:07;6.20;99.90
12408;DHT22;6268;48.188;17.134;2023-04-07T07:51:37;6.50;99.90
12408;DHT22;6268;48.188;17.134;2023-04-07T07:54:06;6.60;99.90
12408;DHT22;6268;48.188;17.134;2023-04-07T07:56:35;6.70;99.90
12408;DHT22;6268;48.188;17.134;2023-04-07T07:59:04;6.60;99.90
12408;DHT22;6268;48.188;17.134;2023-04-07T08:01:33;6.60;99.90
12408;DHT22;6268;48.188;17.134;2023-04-07T08:04:02;6.80;99.90
12408;DHT22;6268;48.188;17.134;2023-04-07T08:06:43;6.70;99.90
12408;DHT22;6268;48.188;17.134;2023-04-07T08:09:12;6.40;99.90
12408;DHT22;6268;48.188;17.134;2023-04-07T08:11:41;6.20;99.90
12408;DHT22;6268;48.188;17.134;2023-04-07T08:14:10;6.10;99.90
12408;DHT22;6268;48.188;17.134;2023-04-07T08:16:39;6.20;99.90
12408;DHT22;6268;48.188;17.134;2023-04-07T08:19:08;6.30;99.90
12408;DHT22;6268;48.188;17.134;2023-04-07T08:21:37;6.30;99.90
12408;DHT22;6268;48.188;17.134;2023-04-07T08:24:08;6.50;99.90
12408;DHT22;6268;48.188;17.134;2023-04-07T08:26:38;6.50;99.90
12408;DHT22;6268;48.188;17.134;2023-04-07T08:29:07;6.50;99.90
12408;DHT22;6268;48.188;17.134;2023-04-07T08:31:36;6.30;99.90
12408;DHT22;6268;48.188;17.134;2023-04-07T08:34:04;6.30;99.90
12408;DHT22;6268;48.188;17.134;2023-04-07T08:36:33;6.50;99.90
12408;DHT22;6268;48.188;17.134;2023-04-07T08:39:03;6.50;99.90
12408;DHT22;6268;48.188;17.134;2023-04-07T08:41:37;6.50;99.90
12408;DHT22;6268;48.188;17.134;2023-04-07T08:44:07;6.50;99.90
12408;DHT22;6268;48.188;17.134;2023-04-07T08:46:38;6.50;99.90
12408;DHT22;6268;48.188;17.134;2023-04-07T08:49:08;6.50;99.90
12408;DHT22;6268;48.188;17.134;2023-04-07T08:51:46;6.60;99.90
12408;DHT22;6268;48.188;17.134;2023-04-07T08:54:17;6.60;99.90
12408;DHT22;6268;48.188;17.134;2023-04-07T08:56:49;6.70;99.90
12408;DHT22;6268;48.188;17.134;2023-04-07T08:59:20;6.70;99.90
12408;DHT22;6268;48.188;17.134;2023-04-07T09:01:53;6.70;99.90
12408;DHT22;6268;48.188;17.134;2023-04-07T09:04:22;6.90;99.90
12408;DHT22;6268;48.188;17.134;2023-04-07T09:06:53;7.00;99.90
12408;DHT22;6268;48.188;17.134;2023-04-07T09:09:22;6.70;99.90
12408;DHT22;6268;48.188;17.134;2023-04-07T09:11:53;6.50;99.90
12408;DHT22;6268;48.188;17.134;2023-04-07T09:14:22;6.60;99.90
12408;DHT22;6268;48.188;17.134;2023-04-07T09:16:50;6.70;99.90
12408;DHT22;6268;48.188;17.134;2023-04-07T09:19:36;6.90;99.90
12408;DHT22;6268;48.188;17.134;2023-04-07T09:22:05;6.90;99.90
12408;DHT22;6268;48.188;17.134;2023-04-07T09:24:39;7.00;99.90
12408;DHT22;6268;48.188;17.134;2023-04-07T09:27:11;7.10;99.90
12408;DHT22;6268;48.188;17.134;2023-04-07T09:29:45;7.20;99.90
12408;DHT22;6268;48.188;17.134;2023-04-07T09:32:33;7.40;99.90
12408;DHT22;6268;48.188;17.134;2023-04-07T09:35:05;7.50;99.90
12408;DHT22;6268;48.188;17.134;2023-04-07T09:37:34;7.60;99.90
12408;DHT22;6268;48.188;17.134;2023-04-07T09:40:04;7.70;99.90
12408;DHT22;6268;48.188;17.134;2023-04-07T09:42:44;7.60;99.90
12408;DHT22;6268;48.188;17.134;2023-04-07T09:45:23;7.50;99.90
12408;DHT22;6268;48.188;17.134;2023-04-07T09:48:05;7.70;99.90
12408;DHT22;6268;48.188;17.134;2023-04-07T09:50:37;7.70;99.90
12408;DHT22;6268;48.188;17.134;2023-04-07T09:53:08;7.50;99.90
12408;DHT22;6268;48.188;17.134;2023-04-07T09:55:40;7.30;99.90
12408;DHT22;6268;48.188;17.134;2023-04-07T09:58:12;7.30;99.90
12408;DHT22;6268;48.188;17.134;2023-04-07T10:00:43;7.10;99.90
12408;DHT22;6268;48.188;17.134;2023-04-07T10:03:14;7.10;99.90
12408;DHT22;6268;48.188;17.134;2023-04-07T10:05:44;7.20;99.90
12408;DHT22;6268;48.188;17.134;2023-04-07T10:08:14;7.30;99.90
12408;DHT22;6268;48.188;17.134;2023-04-07T10:10:44;7.20;99.90
12408;DHT22;6268;48.188;17.134;2023-04-07T10:13:15;7.20;99.90
12408;DHT22;6268;48.188;17.134;2023-04-07T10:15:44;7.40;99.90
12408;DHT22;6268;48.188;17.134;2023-04-07T10:18:14;7.30;99.90
12408;DHT22;6268;48.188;17.134;2023-04-07T10:20:46;7.40;99.90
12408;DHT22;6268;48.188;17.134;2023-04-07T10:23:20;7.30;99.90
12408;DHT22;6268;48.188;17.134;2023-04-07T10:25:57;7.40;99.90
12408;DHT22;6268;48.188;17.134;2023-04-07T10:28:29;7.50;99.90
12408;DHT22;6268;48.188;17.134;2023-04-07T10:31:01;7.60;99.90
12408;DHT22;6268;48.188;17.134;2023-04-07T10:33:50;7.80;99.90
12408;DHT22;6268;48.188;17.134;2023-04-07T10:36:20;7.80;99.90
12408;DHT22;6268;48.188;17.134;2023-04-07T10:39:20;7.70;99.90
12408;DHT22;6268;48.188;17.134;2023-04-07T10:41:50;7.60;99.90
12408;DHT22;6268;48.188;17.134;2023-04-07T10:44:47;7.70;99.90
12408;DHT22;6268;48.188;17.134;2023-04-07T10:47:18;7.80;99.90
12408;DHT22;6268;48.188;17.134;2023-04-07T10:50:14;7.70;99.90
12408;DHT22;6268;48.188;17.134;2023-04-07T10:52:47;7.70;99.90
12408;DHT22;6268;48.188;17.134;2023-04-07T10:55:32;7.60;99.90
12408;DHT22;6268;48.188;17.134;2023-04-07T10:58:20;7.70;99.90
12408;DHT22;6268;48.188;17.134;2023-04-07T11:01:17;7.60;99.90
12408;DHT22;6268;48.188;17.134;2023-04-07T11:03:55;7.50;99.90
12408;DHT22;6268;48.188;17.134;2023-04-07T11:06:25;7.40;99.90
12408;DHT22;6268;48.188;17.134;2023-04-07T11:08:55;7.30;99.90
12408;DHT22;6268;48.188;17.134;2023-04-07T11:11:38;7.10;99.90
12408;DHT22;6268;48.188;17.134;2023-04-07T11:14:08;7.10;99.90
12408;DHT22;6268;48.188;17.134;2023-04-07T11:16:42;7.00;99.90
12408;DHT22;6268;48.188;17.134;2023-04-07T11:19:12;6.70;99.90
12408;DHT22;6268;48.188;17.134;2023-04-07T11:21:41;6.70;99.90
12408;DHT22;6268;48.188;17.134;2023-04-07T11:24:10;6.80;99.90
12408;DHT22;6268;48.188;17.134;2023-04-07T11:26:39;6.90;99.90
12408;DHT22;6268;48.188;17.134;2023-04-07T11:29:09;7.00;99.90
12408;DHT22;6268;48.188;17.134;2023-04-07T11:31:39;7.00;99.90
12408;DHT22;6268;48.188;17.134;2023-04-07T11:34:16;7.00;99.90
12408;DHT22;6268;48.188;17.134;2023-04-07T11:36:45;6.90;99.90
12408;DHT22;6268;48.188;17.134;2023-04-07T11:39:18;6.70;99.90
12408;DHT22;6268;48.188;17.134;2023-04-07T11:41:49;6.70;99.90
12408;DHT22;6268;48.188;17.134;2023-04-07T11:44:18;6.70;99.90
12408;DHT22;6268;48.188;17.134;2023-04-07T11:46:54;6.70;99.90
12408;DHT22;6268;48.188;17.134;2023-04-07T11:49:26;6.70;99.90
12408;DHT22;6268;48.188;17.134;2023-04-07T11:52:00;6.60;99.90
12408;DHT22;6268;48.188;17.134;2023-04-07T11:54:39;6.80;99.90
12408;DHT22;6268;48.188;17.134;2023-04-07T11:57:09;6.90;99.90
12408;DHT22;6268;48.188;17.134;2023-04-07T11:59:39;7.20;99.90
12408;DHT22;6268;48.188;17.134;2023-04-07T12:02:08;7.40;99.90
12408;DHT22;6268;48.188;17.134;2023-04-07T12:04:54;7.60;99.90
12408;DHT22;6268;48.188;17.134;2023-04-07T12:07:24;7.60;99.90
12408;DHT22;6268;48.188;17.134;2023-04-07T12:09:54;7.70;99.90
12408;DHT22;6268;48.188;17.134;2023-04-07T12:12:27;7.50;99.90
12408;DHT22;6268;48.188;17.134;2023-04-07T12:14:59;7.50;99.90
12408;DHT22;6268;48.188;17.134;2023-04-07T12:17:28;7.60;99.90
12408;DHT22;6268;48.188;17.134;2023-04-07T12:19:59;7.70;99.90
12408;DHT22;6268;48.188;17.134;2023-04-07T12:22:28;7.80;99.90
12408;DHT22;6268;48.188;17.134;2023-04-07T12:24:57;7.80;99.90
12408;DHT22;6268;48.188;17.134;2023-04-07T12:27:26;7.80;99.90
12408;DHT22;6268;48.188;17.134;2023-04-07T12:30:09;8.00;99.90
12408;DHT22;6268;48.188;17.134;2023-04-07T12:32:40;8.10;99.90
12408;DHT22;6268;48.188;17.134;2023-04-07T12:35:10;8.20;99.90
12408;DHT22;6268;48.188;17.134;2023-04-07T12:37:39;8.20;99.90
12408;DHT22;6268;48.188;17.134;2023-04-07T12:40:09;8.30;99.90
12408;DHT22;6268;48.188;17.134;2023-04-07T12:42:38;8.20;99.90
12408;DHT22;6268;48.188;17.134;2023-04-07T12:45:08;8.20;99.90
12408;DHT22;6268;48.188;17.134;2023-04-07T12:47:37;8.20;99.90
12408;DHT22;6268;48.188;17.134;2023-04-07T12:50:07;8.00;99.90
12408;DHT22;6268;48.188;17.134;2023-04-07T12:52:37;8.00;99.90
12408;DHT22;6268;48.188;17.134;2023-04-07T12:55:09;7.70;99.90
12408;DHT22;6268;48.188;17.134;2023-04-07T12:57:38;7.70;99.90
12408;DHT22;6268;48.188;17.134;2023-04-07T13:00:08;7.80;99.90
12408;DHT22;6268;48.188;17.134;2023-04-07T13:02:38;7.90;99.90
12408;DHT22;6268;48.188;17.134;2023-04-07T13:05:08;7.90;99.90
12408;DHT22;6268;48.188;17.134;2023-04-07T13:07:38;8.00;99.90
12408;DHT22;6268;48.188;17.134;2023-04-07T13:10:08;8.00;99.90
12408;DHT22;6268;48.188;17.134;2023-04-07T13:12:37;8.00;99.90
12408;DHT22;6268;48.188;17.134;2023-04-07T13:15:07;8.00;99.90
12408;DHT22;6268;48.188;17.134;2023-04-07T13:17:36;7.90;99.90
12408;DHT22;6268;48.188;17.134;2023-04-07T13:20:06;8.00;99.90
12408;DHT22;6268;48.188;17.134;2023-04-07T13:22:35;7.90;99.90
12408;DHT22;6268;48.188;17.134;2023-04-07T13:25:17;7.80;99.90
12408;DHT22;6268;48.188;17.134;2023-04-07T13:27:46;7.80;99.90
12408;DHT22;6268;48.188;17.134;2023-04-07T13:30:15;7.80;99.90
12408;DHT22;6268;48.188;17.134;2023-04-07T13:32:47;7.80;99.90
12408;DHT22;6268;48.188;17.134;2023-04-07T13:35:16;7.80;99.90
12408;DHT22;6268;48.188;17.134;2023-04-07T13:37:45;7.70;99.90
12408;DHT22;6268;48.188;17.134;2023-04-07T13:40:14;7.80;99.90
12408;DHT22;6268;48.188;17.134;2023-04-07T13:42:45;8.00;99.90
12408;DHT22;6268;48.188;17.134;2023-04-07T13:45:14;8.00;99.90
12408;DHT22;6268;48.188;17.134;2023-04-07T13:47:42;8.00;99.90
12408;DHT22;6268;48.188;17.134;2023-04-07T13:50:12;8.10;99.90
12408;DHT22;6268;48.188;17.134;2023-04-07T13:52:41;8.20;99.90
12408;DHT22;6268;48.188;17.134;2023-04-07T13:55:11;8.30;99.90
12408;DHT22;6268;48.188;17.134;2023-04-07T13:57:39;8.30;99.90
12408;DHT22;6268;48.188;17.134;2023-04-07T14:00:11;8.40;99.90
12408;DHT22;6268;48.188;17.134;2023-04-07T14:02:41;8.40;99.90
12408;DHT22;6268;48.188;17.134;2023-04-07T14:05:12;8.20;99.90
12408;DHT22;6268;48.188;17.134;2023-04-07T14:07:40;8.20;99.90
12408;DHT22;6268;48.188;17.134;2023-04-07T14:10:10;8.20;99.90
12408;DHT22;6268;48.188;17.134;2023-04-07T14:12:39;8.10;99.90
12408;DHT22;6268;48.188;17.134;2023-04-07T14:15:09;8.10;99.90
12408;DHT22;6268;48.188;17.134;2023-04-07T14:17:39;8.10;99.90
12408;DHT22;6268;48.188;17.134;2023-04-07T14:20:08;8.00;99.90
12408;DHT22;6268;48.188;17.134;2023-04-07T14:22:38;8.00;99.90
12408;DHT22;6268;48.188;17.134;2023-04-07T14:25:07;8.00;99.90
12408;DHT22;6268;48.188;17.134;2023-04-07T14:27:36;8.20;99.90
12408;DHT22;6268;48.188;17.134;2023-04-07T14:30:06;8.30;99.90
12408;DHT22;6268;48.188;17.134;2023-04-07T14:32:37;8.40;99.90
12408;DHT22;6268;48.188;17.134;2023-04-07T14:35:07;8.30;99.90
12408;DHT22;6268;48.188;17.134;2023-04-07T14:37:37;8.40;99.90
12408;DHT22;6268;48.188;17.134;2023-04-07T14:40:07;8.50;99.90
12408;DHT22;6268;48.188;17.134;2023-04-07T14:42:36;8.50;99.90
12408;DHT22;6268;48.188;17.134;2023-04-07T14:45:06;8.50;99.90
12408;DHT22;6268;48.188;17.134;2023-04-07T14:47:37;8.40;99.90
12408;DHT22;6268;48.188;17.134;2023-04-07T14:50:07;8.40;99.90
12408;DHT22;6268;48.188;17.134;2023-04-07T14:52:36;8.40;99.90
12408;DHT22;6268;48.188;17.134;2023-04-07T14:55:06;8.40;99.90
12408;DHT22;6268;48.188;17.134;2023-04-07T14:57:35;8.50;99.90
12408;DHT22;6268;48.188;17.134;2023-04-07T15:00:05;8.50;99.90
12408;DHT22;6268;48.188;17.134;2023-04-07T15:02:36;8.40;99.90
12408;DHT22;6268;48.188;17.134;2023-04-07T15:05:07;8.40;99.90
12408;DHT22;6268;48.188;17.134;2023-04-07T15:07:36;8.40;99.90
12408;DHT22;6268;48.188;17.134;2023-04-07T15:10:06;8.30;99.90
12408;DHT22;6268;48.188;17.134;2023-04-07T15:12:35;8.30;99.90
12408;DHT22;6268;48.188;17.134;2023-04-07T15:15:05;8.30;99.90
12408;DHT22;6268;48.188;17.134;2023-04-07T15:17:34;8.30;99.90
12408;DHT22;6268;48.188;17.134;2023-04-07T15:20:12;8.30;99.90
12408;DHT22;6268;48.188;17.134;2023-04-07T15:22:41;8.30;99.90
12408;DHT22;6268;48.188;17.134;2023-04-07T15:25:10;8.30;99.90
12408;DHT22;6268;48.188;17.134;2023-04-07T15:27:39;8.20;99.90
12408;DHT22;6268;48.188;17.134;2023-04-07T15:30:08;8.20;99.90
12408;DHT22;6268;48.188;17.134;2023-04-07T15:32:38;8.10;99.90
12408;DHT22;6268;48.188;17.134;2023-04-07T15:35:07;8.20;99.90
12408;DHT22;6268;48.188;17.134;2023-04-07T15:37:38;8.20;99.90
12408;DHT22;6268;48.188;17.134;2023-04-07T15:40:08;8.20;99.90
12408;DHT22;6268;48.188;17.134;2023-04-07T15:42:37;8.30;99.90
12408;DHT22;6268;48.188;17.134;2023-04-07T15:45:09;8.40;99.90
12408;DHT22;6268;48.188;17.134;2023-04-07T15:47:38;8.20;99.90
12408;DHT22;6268;48.188;17.134;2023-04-07T15:50:08;8.20;99.90
12408;DHT22;6268;48.188;17.134;2023-04-07T15:52:39;8.10;99.90
12408;DHT22;6268;48.188;17.134;2023-04-07T15:55:08;8.20;99.90
12408;DHT22;6268;48.188;17.134;2023-04-07T15:57:37;8.20;99.90
12408;DHT22;6268;48.188;17.134;2023-04-07T16:00:06;8.30;99.90
12408;DHT22;6268;48.188;17.134;2023-04-07T16:02:36;8.40;99.90
12408;DHT22;6268;48.188;17.134;2023-04-07T16:05:05;8.40;99.90
12408;DHT22;6268;48.188;17.134;2023-04-07T16:07:35;8.30;99.90